Time;durP1;ratioP1;P1;durP2;ratioP2;P2;SDS_P1;SDS_P2;PMS_P1;PMS_P2;Temp;Humidity;BMP_temperature;BMP_pressure;BME280_temperature;BME280_humidity;BME280_pressure;Samples;Min_cycle;Max_cycle;Signal;HPM_P1;HPM_P2
2022/10/15 00:02:19;;;;;;;;;;;17.00;99.90;;;;;;5095972;28;19911;-75
2022/10/15 00:04:45;;;;;;;;;;;17.00;99.90;;;;;;5095198;28;19904;-75
2022/10/15 00:07:10;;;;;;;;;;;17.00;99.90;;;;;;5095796;28;19927;-75
2022/10/15 00:09:36;;;;;;;;;;;17.00;99.90;;;;;;5077023;28;19904;-74
2022/10/15 00:12:01;;;;;;;;;;;17.00;99.90;;;;;;5095193;28;19915;-76
2022/10/15 00:14:27;;;;;;;;;;;17.00;99.90;;;;;;5095466;28;19938;-76
2022/10/15 00:16:53;;;;;;;;;;;17.00;99.90;;;;;;5095112;28;19904;-77
2022/10/15 00:19:18;;;;;;;;;;;17.00;99.90;;;;;;5095043;28;19904;-77
2022/10/15 00:21:44;;;;;;;;;;;17.00;99.90;;;;;;5095270;28;19908;-76
2022/10/15 00:24:09;;;;;;;;;;;17.00;99.90;;;;;;5095051;28;19912;-75
2022/10/15 00:26:35;;;;;;;;;;;17.00;99.90;;;;;;5095098;28;19957;-75
2022/10/15 00:29:01;;;;;;;;;;;17.00;99.90;;;;;;5094671;28;19904;-74
2022/10/15 00:31:28;;;;;;;;;;;17.00;99.90;;;;;;5094088;28;20002;-75
2022/10/15 00:33:55;;;;;;;;;;;17.00;99.90;;;;;;5094765;28;19912;-76
2022/10/15 00:36:28;;;;;;;;;;;17.00;99.90;;;;;;5095070;28;20249;-75
2022/10/15 00:38:54;;;;;;;;;;;17.00;99.90;;;;;;5094691;28;19908;-75
2022/10/15 00:41:21;;;;;;;;;;;17.00;99.90;;;;;;5094323;28;20276;-75
2022/10/15 00:43:48;;;;;;;;;;;17.00;99.90;;;;;;5094446;28;19904;-75
2022/10/15 00:46:19;;;;;;;;;;;17.00;99.90;;;;;;5095039;28;19904;-75
2022/10/15 00:48:47;;;;;;;;;;;17.00;99.90;;;;;;5076121;28;19908;-76
2022/10/15 00:51:13;;;;;;;;;;;17.00;99.90;;;;;;5094752;28;19904;-75
2022/10/15 00:53:39;;;;;;;;;;;17.00;99.90;;;;;;5094606;28;19908;-76
2022/10/15 00:56:04;;;;;;;;;;;17.00;99.90;;;;;;5094618;28;20010;-77
2022/10/15 00:58:31;;;;;;;;;;;16.90;99.90;;;;;;5094334;28;20291;-75
2022/10/15 01:00:57;;;;;;;;;;;16.90;99.90;;;;;;5094847;28;19904;-77
2022/10/15 01:03:22;;;;;;;;;;;16.90;99.90;;;;;;5094181;28;19904;-76
2022/10/15 01:05:50;;;;;;;;;;;16.90;99.90;;;;;;5094275;28;19973;-78
2022/10/15 01:08:15;;;;;;;;;;;16.90;99.90;;;;;;5076276;28;20328;-74
2022/10/15 01:10:49;;;;;;;;;;;16.90;99.90;;;;;;5094696;28;19942;-76
2022/10/15 01:13:37;;;;;;;;;;;17.00;99.90;;;;;;5094185;28;20003;-76
2022/10/15 01:16:23;;;;;;;;;;;17.00;99.90;;;;;;5039114;28;19910;-77
2022/10/15 01:18:52;;;;;;;;;;;16.90;99.90;;;;;;5094117;28;20376;-75
2022/10/15 01:21:24;;;;;;;;;;;17.00;99.90;;;;;;5093972;28;20304;-74
2022/10/15 01:23:52;;;;;;;;;;;16.90;99.90;;;;;;5094110;28;19911;-75
2022/10/15 01:26:34;;;;;;;;;;;16.90;99.90;;;;;;5094171;28;19904;-74
2022/10/15 01:29:15;;;;;;;;;;;16.90;99.90;;;;;;5094236;28;19904;-76
2022/10/15 01:31:40;;;;;;;;;;;16.80;99.90;;;;;;5093956;28;20296;-74
2022/10/15 01:34:16;;;;;;;;;;;16.80;99.90;;;;;;5094295;28;19904;-75
2022/10/15 01:36:41;;;;;;;;;;;16.80;99.90;;;;;;5094153;28;19904;-76
2022/10/15 01:39:06;;;;;;;;;;;16.80;99.90;;;;;;5093871;28;19904;-75
2022/10/15 01:41:42;;;;;;;;;;;16.80;99.90;;;;;;5094524;28;19953;-76
2022/10/15 01:44:10;;;;;;;;;;;16.80;99.90;;;;;;5094093;28;19904;-76
2022/10/15 01:46:45;;;;;;;;;;;16.80;99.90;;;;;;5094280;28;20344;-77
2022/10/15 01:49:14;;;;;;;;;;;16.80;99.90;;;;;;5093786;28;19911;-75
2022/10/15 01:51:41;;;;;;;;;;;16.80;99.90;;;;;;5093838;28;19908;-76
2022/10/15 01:54:09;;;;;;;;;;;16.70;99.90;;;;;;5096545;28;20405;-76
2022/10/15 01:56:36;;;;;;;;;;;16.70;99.90;;;;;;5097808;28;19915;-75
2022/10/15 01:59:01;;;;;;;;;;;16.70;99.90;;;;;;5098330;28;19904;-76
2022/10/15 02:01:27;;;;;;;;;;;16.70;99.90;;;;;;5097641;28;19958;-74
2022/10/15 02:03:53;;;;;;;;;;;16.70;99.90;;;;;;5097703;28;19904;-77
2022/10/15 02:06:22;;;;;;;;;;;16.70;99.90;;;;;;5097725;28;19904;-76
2022/10/15 02:08:52;;;;;;;;;;;16.70;99.90;;;;;;5097461;28;19910;-77
2022/10/15 02:11:18;;;;;;;;;;;16.70;99.90;;;;;;5097820;28;20356;-76
2022/10/15 02:13:51;;;;;;;;;;;16.60;99.90;;;;;;5079176;28;20055;-77
2022/10/15 02:16:16;;;;;;;;;;;16.60;99.90;;;;;;5097416;28;19942;-76
2022/10/15 02:18:47;;;;;;;;;;;16.60;99.90;;;;;;5097483;28;19944;-76
2022/10/15 02:21:21;;;;;;;;;;;16.60;99.90;;;;;;5097602;28;20348;-76
2022/10/15 02:23:52;;;;;;;;;;;16.60;99.90;;;;;;5097808;28;20312;-75
2022/10/15 02:26:18;;;;;;;;;;;16.60;99.90;;;;;;5097219;28;19904;-75
2022/10/15 02:28:45;;;;;;;;;;;16.60;99.90;;;;;;5097191;28;19914;-74
2022/10/15 02:31:12;;;;;;;;;;;16.60;99.90;;;;;;5096599;28;19939;-75
2022/10/15 02:33:40;;;;;;;;;;;16.50;99.90;;;;;;5078862;28;20387;-75
2022/10/15 02:36:06;;;;;;;;;;;16.60;99.90;;;;;;5097076;28;19904;-74
2022/10/15 02:38:32;;;;;;;;;;;16.50;99.90;;;;;;5097526;28;19911;-75
2022/10/15 02:40:59;;;;;;;;;;;16.50;99.90;;;;;;5096902;28;19933;-75
2022/10/15 02:43:24;;;;;;;;;;;16.50;99.90;;;;;;5096919;28;19963;-76
2022/10/15 02:45:50;;;;;;;;;;;16.50;99.90;;;;;;5096837;28;19932;-75
2022/10/15 02:48:16;;;;;;;;;;;16.50;99.90;;;;;;5097031;28;19904;-75
2022/10/15 02:50:41;;;;;;;;;;;16.40;99.90;;;;;;5096635;28;20075;-75
2022/10/15 02:53:07;;;;;;;;;;;16.40;99.90;;;;;;5096719;28;19908;-75
2022/10/15 02:55:32;;;;;;;;;;;16.40;99.90;;;;;;5097303;28;19957;-74
2022/10/15 02:57:58;;;;;;;;;;;16.40;99.90;;;;;;5078394;28;19955;-76
2022/10/15 03:00:23;;;;;;;;;;;16.40;99.90;;;;;;5096747;28;20008;-75
2022/10/15 03:02:49;;;;;;;;;;;16.30;99.90;;;;;;5078384;28;20371;-75
2022/10/15 03:05:14;;;;;;;;;;;16.30;99.90;;;;;;5095579;28;19914;-75
2022/10/15 03:07:40;;;;;;;;;;;16.30;99.90;;;;;;5097029;28;19995;-77
2022/10/15 03:10:06;;;;;;;;;;;16.30;99.90;;;;;;5096387;28;19908;-75
2022/10/15 03:12:32;;;;;;;;;;;16.20;99.90;;;;;;5096357;28;19930;-76
2022/10/15 03:14:57;;;;;;;;;;;16.20;99.90;;;;;;5096592;28;19904;-77
2022/10/15 03:17:23;;;;;;;;;;;16.10;99.90;;;;;;5096160;28;20312;-75
2022/10/15 03:19:48;;;;;;;;;;;16.10;99.90;;;;;;5096799;28;19911;-76
2022/10/15 03:22:14;;;;;;;;;;;16.10;99.90;;;;;;5096091;28;20284;-74
2022/10/15 03:24:39;;;;;;;;;;;16.10;99.90;;;;;;5096367;28;19904;-75
2022/10/15 03:27:05;;;;;;;;;;;16.10;99.90;;;;;;5096003;28;19912;-75
2022/10/15 03:29:33;;;;;;;;;;;16.00;99.90;;;;;;5095361;28;19904;-76
2022/10/15 03:31:58;;;;;;;;;;;16.10;99.90;;;;;;5096457;28;20344;-76
2022/10/15 03:34:24;;;;;;;;;;;16.00;99.90;;;;;;5096274;28;19908;-76
2022/10/15 03:36:50;;;;;;;;;;;16.00;99.90;;;;;;5096011;28;19911;-75
2022/10/15 03:39:15;;;;;;;;;;;16.00;99.90;;;;;;5096141;28;19908;-75
2022/10/15 03:41:41;;;;;;;;;;;16.00;99.90;;;;;;5095604;28;19911;-76
2022/10/15 03:44:07;;;;;;;;;;;16.00;99.90;;;;;;5096168;28;20264;-76
2022/10/15 03:46:33;;;;;;;;;;;16.00;99.90;;;;;;5095724;28;19907;-74
2022/10/15 03:48:59;;;;;;;;;;;15.90;99.90;;;;;;5095631;28;19904;-75
2022/10/15 03:51:24;;;;;;;;;;;15.90;99.90;;;;;;5095670;28;19999;-76
2022/10/15 03:53:50;;;;;;;;;;;15.90;99.90;;;;;;5095496;28;20007;-75
2022/10/15 03:56:15;;;;;;;;;;;15.90;99.90;;;;;;5095538;28;19956;-75
2022/10/15 03:58:41;;;;;;;;;;;16.00;99.90;;;;;;5095968;28;20000;-77
2022/10/15 04:01:15;;;;;;;;;;;16.00;99.90;;;;;;5095334;28;19911;-75
2022/10/15 04:03:40;;;;;;;;;;;16.00;99.90;;;;;;5095816;28;19904;-76
2022/10/15 04:06:06;;;;;;;;;;;16.00;99.90;;;;;;5095258;28;20356;-75
2022/10/15 04:08:32;;;;;;;;;;;15.90;99.90;;;;;;5095909;28;19903;-76
2022/10/15 04:10:58;;;;;;;;;;;15.90;99.90;;;;;;5095548;28;19904;-74
2022/10/15 04:13:24;;;;;;;;;;;15.90;99.90;;;;;;5095458;28;19948;-76
2022/10/15 04:15:49;;;;;;;;;;;16.00;99.90;;;;;;5095161;28;19911;-76
2022/10/15 04:18:15;;;;;;;;;;;15.90;99.90;;;;;;5095095;28;19911;-74
2022/10/15 04:20:41;;;;;;;;;;;16.00;99.90;;;;;;5095655;28;19939;-76
2022/10/15 04:23:07;;;;;;;;;;;16.00;99.90;;;;;;5095063;28;19904;-75
2022/10/15 04:25:33;;;;;;;;;;;16.00;99.90;;;;;;5095053;28;19980;-74
2022/10/15 04:27:58;;;;;;;;;;;15.90;99.90;;;;;;5094774;28;20393;-75
2022/10/15 04:30:24;;;;;;;;;;;15.80;99.90;;;;;;5094694;28;19939;-76
2022/10/15 04:32:52;;;;;;;;;;;15.80;99.90;;;;;;5095030;28;19973;-75
2022/10/15 04:35:18;;;;;;;;;;;15.80;99.90;;;;;;5094999;28;19943;-75
2022/10/15 04:37:43;;;;;;;;;;;15.80;99.90;;;;;;5095326;28;19943;-76
2022/10/15 04:40:09;;;;;;;;;;;15.80;99.90;;;;;;5094744;28;19994;-74
2022/10/15 04:42:35;;;;;;;;;;;15.70;99.90;;;;;;5094785;28;19912;-74
2022/10/15 04:45:00;;;;;;;;;;;15.70;99.90;;;;;;5094787;28;19904;-76
2022/10/15 04:47:26;;;;;;;;;;;15.70;99.90;;;;;;5094641;28;19904;-75
2022/10/15 04:49:51;;;;;;;;;;;15.70;99.90;;;;;;5094772;28;20356;-74
2022/10/15 04:52:17;;;;;;;;;;;15.70;99.90;;;;;;5094386;28;19908;-75
2022/10/15 04:54:42;;;;;;;;;;;15.70;99.90;;;;;;5094382;28;19904;-77
2022/10/15 04:57:08;;;;;;;;;;;15.70;99.90;;;;;;5076243;28;20431;-76
2022/10/15 04:59:33;;;;;;;;;;;15.80;99.90;;;;;;5094395;28;20113;-76
2022/10/15 05:01:59;;;;;;;;;;;15.80;99.90;;;;;;5094322;28;19904;-78
2022/10/15 05:04:24;;;;;;;;;;;15.80;99.90;;;;;;5094248;28;19907;-74
2022/10/15 05:06:50;;;;;;;;;;;15.80;99.90;;;;;;5094284;28;19904;-77
2022/10/15 05:09:15;;;;;;;;;;;15.80;99.90;;;;;;5094665;28;19904;-75
2022/10/15 05:11:41;;;;;;;;;;;15.70;99.90;;;;;;5094316;28;20304;-76
2022/10/15 05:14:07;;;;;;;;;;;15.70;99.90;;;;;;5094861;28;19953;-77
2022/10/15 05:16:33;;;;;;;;;;;15.70;99.90;;;;;;5094211;28;20362;-74
2022/10/15 05:19:03;;;;;;;;;;;15.70;99.90;;;;;;5094159;28;19908;-76
2022/10/15 05:21:30;;;;;;;;;;;15.60;99.90;;;;;;5094020;28;19970;-73
2022/10/15 05:23:56;;;;;;;;;;;15.60;99.90;;;;;;5094489;28;19969;-77
2022/10/15 05:26:22;;;;;;;;;;;15.60;99.90;;;;;;5093944;28;19904;-76
2022/10/15 05:28:48;;;;;;;;;;;15.50;99.90;;;;;;5093662;28;19927;-75
2022/10/15 05:31:15;;;;;;;;;;;15.50;99.90;;;;;;5093530;28;20368;-75
2022/10/15 05:33:40;;;;;;;;;;;15.40;99.90;;;;;;5093877;28;19912;-75
2022/10/15 05:36:29;;;;;;;;;;;15.40;99.90;;;;;;5075961;28;19904;-75
2022/10/15 05:38:56;;;;;;;;;;;15.40;99.90;;;;;;5083209;28;19961;-75
2022/10/15 05:41:22;;;;;;;;;;;15.40;99.90;;;;;;5094146;28;19904;-75
2022/10/15 05:43:49;;;;;;;;;;;15.30;99.90;;;;;;5094002;28;20033;-74
2022/10/15 05:46:15;;;;;;;;;;;15.30;99.90;;;;;;5093984;28;20365;-76
2022/10/15 05:48:41;;;;;;;;;;;15.30;99.90;;;;;;5094003;28;19904;-75
2022/10/15 05:51:09;;;;;;;;;;;15.30;99.90;;;;;;5093766;28;19904;-76
2022/10/15 05:53:35;;;;;;;;;;;15.30;99.90;;;;;;5093762;28;19946;-75
2022/10/15 05:56:00;;;;;;;;;;;15.30;99.90;;;;;;5094040;28;19958;-75
2022/10/15 05:58:27;;;;;;;;;;;15.30;99.90;;;;;;5093754;28;19904;-74
2022/10/15 06:00:56;;;;;;;;;;;15.30;99.90;;;;;;5094293;28;19953;-75
2022/10/15 06:03:22;;;;;;;;;;;15.30;99.90;;;;;;5093748;28;19904;-74
2022/10/15 06:05:48;;;;;;;;;;;15.20;99.90;;;;;;5094216;28;19972;-76
2022/10/15 06:08:13;;;;;;;;;;;15.10;99.90;;;;;;5093628;28;20368;-74
2022/10/15 06:10:39;;;;;;;;;;;15.10;99.90;;;;;;5093711;28;20352;-77
2022/10/15 06:13:05;;;;;;;;;;;15.10;99.90;;;;;;5093569;28;20268;-75
2022/10/15 06:15:30;;;;;;;;;;;15.00;99.90;;;;;;5093572;28;19926;-76
2022/10/15 06:17:56;;;;;;;;;;;15.00;99.90;;;;;;5093582;28;19904;-77
2022/10/15 06:20:21;;;;;;;;;;;15.00;99.90;;;;;;5094068;28;19904;-76
2022/10/15 06:22:47;;;;;;;;;;;14.90;99.90;;;;;;5093783;28;19904;-74
2022/10/15 06:25:12;;;;;;;;;;;14.90;99.90;;;;;;5093487;28;19904;-75
2022/10/15 06:27:38;;;;;;;;;;;14.80;99.90;;;;;;5093544;28;19943;-78
2022/10/15 06:30:04;;;;;;;;;;;14.70;99.90;;;;;;5093038;28;19919;-77
2022/10/15 06:32:29;;;;;;;;;;;14.70;99.90;;;;;;5093490;28;20428;-75
2022/10/15 06:34:55;;;;;;;;;;;14.60;99.90;;;;;;5093137;28;19991;-75
2022/10/15 06:37:20;;;;;;;;;;;14.60;99.90;;;;;;5093646;28;19960;-75
2022/10/15 06:39:46;;;;;;;;;;;14.60;99.90;;;;;;5093376;28;19904;-75
2022/10/15 06:42:11;;;;;;;;;;;14.60;99.90;;;;;;5097208;28;20038;-76
2022/10/15 06:44:40;;;;;;;;;;;14.50;99.90;;;;;;5097113;28;19973;-76
2022/10/15 06:47:06;;;;;;;;;;;14.50;99.90;;;;;;5096896;28;20287;-76
2022/10/15 06:49:31;;;;;;;;;;;14.60;99.90;;;;;;5096867;28;19904;-74
2022/10/15 06:51:57;;;;;;;;;;;14.60;99.90;;;;;;5096755;28;19935;-75
2022/10/15 06:54:23;;;;;;;;;;;14.60;99.90;;;;;;5096816;28;20374;-76
2022/10/15 06:56:49;;;;;;;;;;;14.60;99.90;;;;;;5097277;28;19908;-75
2022/10/15 06:59:15;;;;;;;;;;;14.60;99.90;;;;;;5096606;28;19908;-77
2022/10/15 07:01:40;;;;;;;;;;;14.60;99.90;;;;;;5096984;28;20349;-77
2022/10/15 07:04:06;;;;;;;;;;;14.60;99.90;;;;;;5096602;28;19904;-76
2022/10/15 07:06:33;;;;;;;;;;;14.60;99.90;;;;;;5097075;28;20341;-75
2022/10/15 07:09:00;;;;;;;;;;;14.60;99.90;;;;;;5096482;28;19904;-76
2022/10/15 07:11:25;;;;;;;;;;;14.60;99.90;;;;;;5096369;28;19935;-76
2022/10/15 07:13:51;;;;;;;;;;;14.60;99.90;;;;;;5096287;28;19947;-76
2022/10/15 07:16:16;;;;;;;;;;;14.60;99.90;;;;;;5096659;28;20356;-76
2022/10/15 07:18:42;;;;;;;;;;;14.60;99.90;;;;;;5096653;28;19904;-77
2022/10/15 07:21:08;;;;;;;;;;;14.70;99.90;;;;;;5096817;28;19911;-75
2022/10/15 07:23:34;;;;;;;;;;;14.60;99.90;;;;;;5096205;28;19904;-76
2022/10/15 07:26:00;;;;;;;;;;;14.70;99.90;;;;;;5096134;28;19911;-75
2022/10/15 07:28:26;;;;;;;;;;;14.70;99.90;;;;;;5095949;28;19904;-75
2022/10/15 07:30:51;;;;;;;;;;;14.70;99.90;;;;;;5095487;28;19962;-75
2022/10/15 07:33:17;;;;;;;;;;;14.80;99.90;;;;;;5077775;28;19959;-76
2022/10/15 07:35:42;;;;;;;;;;;14.70;99.90;;;;;;5096070;28;19990;-75
2022/10/15 07:38:08;;;;;;;;;;;14.70;99.90;;;;;;5096119;28;19950;-75
2022/10/15 07:40:33;;;;;;;;;;;14.60;99.90;;;;;;5095870;28;20283;-75
2022/10/15 07:42:59;;;;;;;;;;;14.60;99.90;;;;;;5095762;28;20276;-76
2022/10/15 07:45:25;;;;;;;;;;;14.60;99.90;;;;;;5096078;28;20429;-76
2022/10/15 07:47:51;;;;;;;;;;;14.60;99.90;;;;;;5095609;28;20333;-74
2022/10/15 07:50:17;;;;;;;;;;;14.60;99.90;;;;;;5095598;28;19907;-77
2022/10/15 07:52:42;;;;;;;;;;;14.60;99.90;;;;;;5095073;28;20379;-76
2022/10/15 07:55:08;;;;;;;;;;;14.60;99.90;;;;;;5095823;28;19911;-76
2022/10/15 07:57:33;;;;;;;;;;;14.50;99.90;;;;;;5095783;28;19966;-77
2022/10/15 07:59:59;;;;;;;;;;;14.50;99.90;;;;;;5095994;28;19904;-76
2022/10/15 08:02:24;;;;;;;;;;;14.50;99.90;;;;;;5095390;28;19915;-76
2022/10/15 08:04:50;;;;;;;;;;;14.60;99.90;;;;;;5095391;28;20366;-76
2022/10/15 08:07:16;;;;;;;;;;;14.70;99.90;;;;;;5095284;28;19991;-76
2022/10/15 08:09:42;;;;;;;;;;;14.80;99.90;;;;;;5095645;28;19931;-77
2022/10/15 08:12:07;;;;;;;;;;;14.80;99.90;;;;;;5095199;28;19912;-76
2022/10/15 08:14:33;;;;;;;;;;;15.00;99.90;;;;;;5095221;28;19943;-77
2022/10/15 08:17:00;;;;;;;;;;;15.20;99.90;;;;;;5095112;28;19904;-76
2022/10/15 08:19:25;;;;;;;;;;;15.70;99.90;;;;;;5095023;28;20015;-76
2022/10/15 08:21:51;;;;;;;;;;;15.90;99.90;;;;;;5094980;28;20380;-76
2022/10/15 08:24:16;;;;;;;;;;;15.90;99.90;;;;;;5095408;28;20359;-79
2022/10/15 08:26:42;;;;;;;;;;;15.90;99.90;;;;;;5095213;28;19941;-77
2022/10/15 08:29:09;;;;;;;;;;;16.00;99.90;;;;;;5095228;28;19903;-76
2022/10/15 08:31:34;;;;;;;;;;;16.00;99.90;;;;;;5094059;28;19920;-75
2022/10/15 08:34:00;;;;;;;;;;;16.00;99.90;;;;;;5094933;28;19919;-74
2022/10/15 08:36:26;;;;;;;;;;;16.10;99.90;;;;;;5076668;28;19904;-74
2022/10/15 08:38:51;;;;;;;;;;;16.30;99.90;;;;;;5094772;28;20280;-75
2022/10/15 08:41:17;;;;;;;;;;;16.40;99.90;;;;;;5076093;28;19904;-75
2022/10/15 08:43:45;;;;;;;;;;;16.70;99.90;;;;;;5096488;28;19904;-76
2022/10/15 08:46:17;;;;;;;;;;;16.80;99.90;;;;;;5095349;28;19926;-74
2022/10/15 08:48:47;;;;;;;;;;;16.70;99.90;;;;;;5095192;28;19994;-75
2022/10/15 08:51:15;;;;;;;;;;;16.60;99.90;;;;;;5094473;28;19904;-75
2022/10/15 08:54:01;;;;;;;;;;;16.60;99.90;;;;;;5094620;28;19908;-75
2022/10/15 08:56:29;;;;;;;;;;;16.60;99.90;;;;;;5094449;28;19904;-75
2022/10/15 08:59:13;;;;;;;;;;;16.50;99.90;;;;;;5094335;28;19931;-75
2022/10/15 09:01:56;;;;;;;;;;;16.50;99.90;;;;;;5094268;28;19915;-76
2022/10/15 09:04:24;;;;;;;;;;;16.50;99.90;;;;;;5093555;28;19908;-77
2022/10/15 09:06:53;;;;;;;;;;;16.50;99.90;;;;;;5094401;28;20257;-76
2022/10/15 09:09:30;;;;;;;;;;;16.40;99.90;;;;;;5094586;28;20249;-76
2022/10/15 09:12:01;;;;;;;;;;;16.20;99.90;;;;;;5094201;28;20287;-74
2022/10/15 09:14:30;;;;;;;;;;;16.20;99.90;;;;;;5095050;28;19904;-79
2022/10/15 09:16:58;;;;;;;;;;;16.20;99.90;;;;;;5094126;28;19913;-75
2022/10/15 09:19:25;;;;;;;;;;;16.20;99.90;;;;;;5094421;28;19998;-73
2022/10/15 09:21:51;;;;;;;;;;;16.20;99.90;;;;;;5094173;28;19904;-74
2022/10/15 09:24:24;;;;;;;;;;;16.10;99.90;;;;;;5094101;28;19927;-73
2022/10/15 09:26:52;;;;;;;;;;;16.20;99.90;;;;;;5094581;28;19904;-79
2022/10/15 09:29:23;;;;;;;;;;;16.30;99.90;;;;;;5093897;28;19904;-73
2022/10/15 09:31:52;;;;;;;;;;;16.30;99.90;;;;;;5093951;28;19995;-74
2022/10/15 09:34:40;;;;;;;;;;;16.40;99.90;;;;;;5094080;28;19991;-74
2022/10/15 09:37:11;;;;;;;;;;;16.40;99.90;;;;;;5082972;28;19904;-74
2022/10/15 09:39:46;;;;;;;;;;;16.50;99.90;;;;;;5094527;28;19911;-73
2022/10/15 09:42:22;;;;;;;;;;;16.60;99.90;;;;;;5093912;28;19904;-73
2022/10/15 09:44:48;;;;;;;;;;;16.60;99.90;;;;;;5094225;28;19904;-74
2022/10/15 09:47:25;;;;;;;;;;;16.60;99.90;;;;;;5093881;28;19957;-74
2022/10/15 09:49:50;;;;;;;;;;;16.80;99.90;;;;;;5094392;28;19954;-75
2022/10/15 09:52:35;;;;;;;;;;;16.90;99.90;;;;;;5093737;28;19912;-75
2022/10/15 09:55:25;;;;;;;;;;;17.00;99.90;;;;;;5093753;28;19904;-74
2022/10/15 09:57:53;;;;;;;;;;;17.10;99.90;;;;;;5094119;28;19904;-75
2022/10/15 10:00:19;;;;;;;;;;;17.10;99.90;;;;;;5093613;28;20329;-74
2022/10/15 10:03:01;;;;;;;;;;;17.10;99.90;;;;;;5093729;28;19939;-74
2022/10/15 10:05:28;;;;;;;;;;;17.20;99.90;;;;;;5094123;28;19957;-74
2022/10/15 10:08:08;;;;;;;;;;;17.40;99.90;;;;;;5093867;28;19904;-74
2022/10/15 10:10:34;;;;;;;;;;;17.40;99.90;;;;;;5094006;28;19904;-75
2022/10/15 10:13:00;;;;;;;;;;;17.50;99.90;;;;;;5093507;28;19915;-75
2022/10/15 10:15:35;;;;;;;;;;;17.80;99.90;;;;;;5096196;28;19904;-75
2022/10/15 10:18:04;;;;;;;;;;;18.10;99.90;;;;;;5097661;28;20004;-74
2022/10/15 10:20:30;;;;;;;;;;;18.30;99.90;;;;;;5097558;28;19908;-75
2022/10/15 10:22:57;;;;;;;;;;;18.50;99.90;;;;;;5097345;28;19904;-75
2022/10/15 10:25:23;;;;;;;;;;;18.70;99.90;;;;;;5097775;28;19942;-75
2022/10/15 10:27:48;;;;;;;;;;;18.80;99.90;;;;;;5079078;28;19911;-75
2022/10/15 10:30:14;;;;;;;;;;;18.90;99.90;;;;;;5096768;28;19982;-74
2022/10/15 10:32:40;;;;;;;;;;;18.80;99.90;;;;;;5097222;28;19912;-74
2022/10/15 10:35:18;;;;;;;;;;;18.80;99.90;;;;;;5078947;28;19943;-75
2022/10/15 10:37:43;;;;;;;;;;;18.80;99.90;;;;;;5097633;28;20340;-74
2022/10/15 10:40:21;;;;;;;;;;;18.90;99.90;;;;;;5097050;28;19915;-73
2022/10/15 10:42:47;;;;;;;;;;;19.00;99.90;;;;;;5096908;28;19981;-74
2022/10/15 10:45:19;;;;;;;;;;;18.80;99.90;;;;;;5097047;28;19947;-75
2022/10/15 10:47:45;;;;;;;;;;;18.60;99.90;;;;;;5096875;28;19943;-74
2022/10/15 10:50:26;;;;;;;;;;;18.50;99.90;;;;;;5096868;28;19904;-74
2022/10/15 10:52:52;;;;;;;;;;;18.40;99.90;;;;;;5096766;28;19908;-75
2022/10/15 10:55:18;;;;;;;;;;;18.40;99.90;;;;;;5096980;28;19927;-74
2022/10/15 10:57:53;;;;;;;;;;;18.40;99.90;;;;;;5096727;28;20394;-74
2022/10/15 11:00:21;;;;;;;;;;;18.30;99.90;;;;;;5096728;28;19942;-74
2022/10/15 11:02:47;;;;;;;;;;;18.30;99.90;;;;;;5096645;28;19908;-74
2022/10/15 11:05:15;;;;;;;;;;;18.40;99.90;;;;;;5096651;28;19903;-75
2022/10/15 11:07:47;;;;;;;;;;;18.40;99.90;;;;;;5097143;28;19904;-74
2022/10/15 11:10:27;;;;;;;;;;;18.50;99.90;;;;;;5096510;28;19904;-74
2022/10/15 11:13:11;;;;;;;;;;;18.60;99.90;;;;;;5096419;28;19931;-75
2022/10/15 11:15:51;;;;;;;;;;;18.80;99.90;;;;;;5096788;28;19995;-74
2022/10/15 11:18:28;;;;;;;;;;;19.00;99.90;;;;;;5077804;28;19904;-74
2022/10/15 11:21:14;;;;;;;;;;;19.20;99.90;;;;;;5096967;28;19953;-74
2022/10/15 11:23:49;;;;;;;;;;;19.20;99.90;;;;;;5081951;28;19908;-74
2022/10/15 11:26:14;;;;;;;;;;;19.10;99.90;;;;;;5095304;28;19915;-74
2022/10/15 11:28:49;;;;;;;;;;;19.00;99.90;;;;;;5096030;28;19904;-75
2022/10/15 11:31:21;;;;;;;;;;;19.00;99.90;;;;;;5095846;28;19916;-76
2022/10/15 11:33:46;;;;;;;;;;;18.90;99.90;;;;;;5096081;28;19912;-74
2022/10/15 11:36:38;;;;;;;;;;;19.00;99.90;;;;;;5095935;28;19953;-73
2022/10/15 11:39:06;;;;;;;;;;;19.00;99.90;;;;;;5064382;28;19965;-74
2022/10/15 11:41:35;;;;;;;;;;;19.00;99.90;;;;;;5096116;28;19904;-75
2022/10/15 11:44:23;;;;;;;;;;;19.00;99.90;;;;;;5095883;28;19950;-74
2022/10/15 11:46:48;;;;;;;;;;;19.10;99.90;;;;;;5095811;28;19957;-74
2022/10/15 11:49:14;;;;;;;;;;;19.10;99.90;;;;;;5095690;28;19915;-75
2022/10/15 11:52:02;;;;;;;;;;;19.10;99.90;;;;;;5096210;28;19990;-74
2022/10/15 11:54:46;;;;;;;;;;;19.20;99.90;;;;;;5095371;28;19914;-74
2022/10/15 11:57:14;;;;;;;;;;;19.30;99.90;;;;;;5077432;28;20003;-74
2022/10/15 11:59:44;;;;;;;;;;;19.30;99.90;;;;;;5095556;28;19961;-75
2022/10/15 12:02:28;;;;;;;;;;;19.20;99.90;;;;;;5095731;28;19908;-74
2022/10/15 12:04:55;;;;;;;;;;;19.30;99.90;;;;;;5095304;28;19904;-75
2022/10/15 12:07:22;;;;;;;;;;;19.30;99.90;;;;;;5095364;28;19995;-75
2022/10/15 12:09:51;;;;;;;;;;;19.30;99.90;;;;;;5095286;28;19907;-74
2022/10/15 12:12:21;;;;;;;;;;;19.40;99.90;;;;;;5095258;28;19912;-74
2022/10/15 12:15:06;;;;;;;;;;;19.40;99.90;;;;;;5095722;28;19998;-74
2022/10/15 12:17:45;;;;;;;;;;;19.40;99.90;;;;;;5095193;28;19904;-74
2022/10/15 12:20:12;;;;;;;;;;;19.50;99.90;;;;;;5095242;28;19911;-74
2022/10/15 12:22:39;;;;;;;;;;;19.60;99.90;;;;;;5095363;28;19904;-74
2022/10/15 12:25:25;;;;;;;;;;;19.70;99.90;;;;;;5094989;28;20004;-75
2022/10/15 12:27:58;;;;;;;;;;;19.80;99.90;;;;;;5094794;28;19911;-74
2022/10/15 12:30:25;;;;;;;;;;;19.80;99.90;;;;;;5094557;28;19912;-74
2022/10/15 12:32:51;;;;;;;;;;;19.90;99.90;;;;;;5094714;28;20392;-75
2022/10/15 12:35:20;;;;;;;;;;;20.00;99.90;;;;;;5076570;28;20003;-74
2022/10/15 12:37:46;;;;;;;;;;;20.20;99.90;;;;;;5095215;28;19908;-74
2022/10/15 12:40:21;;;;;;;;;;;20.40;99.90;;;;;;5094616;28;19904;-75
2022/10/15 12:42:51;;;;;;;;;;;20.30;99.90;;;;;;5094945;28;19904;-74
2022/10/15 12:45:37;;;;;;;;;;;20.30;99.90;;;;;;5094700;28;20083;-75
2022/10/15 12:48:02;;;;;;;;;;;20.40;99.90;;;;;;5094046;28;19904;-74
2022/10/15 12:50:30;;;;;;;;;;;20.40;99.90;;;;;;5094583;28;19904;-75
2022/10/15 12:52:55;;;;;;;;;;;20.40;99.90;;;;;;5094633;28;19912;-75
2022/10/15 12:55:23;;;;;;;;;;;20.40;99.90;;;;;;5095091;28;20336;-75
2022/10/15 12:57:52;;;;;;;;;;;20.40;99.90;;;;;;5094547;28;19904;-75
2022/10/15 13:00:31;;;;;;;;;;;20.30;99.90;;;;;;5094555;28;19954;-74
2022/10/15 13:03:07;;;;;;;;;;;20.20;99.90;;;;;;5094718;28;19908;-75
2022/10/15 13:05:34;;;;;;;;;;;20.20;99.90;;;;;;5094438;28;19908;-74
2022/10/15 13:08:00;;;;;;;;;;;20.10;99.90;;;;;;5094576;28;19904;-74
2022/10/15 13:10:26;;;;;;;;;;;20.10;99.90;;;;;;5094266;28;19954;-75
2022/10/15 13:13:01;;;;;;;;;;;20.10;99.90;;;;;;5094697;28;19955;-75
2022/10/15 13:15:28;;;;;;;;;;;20.10;99.90;;;;;;5094179;28;19998;-74
2022/10/15 13:17:54;;;;;;;;;;;20.00;99.90;;;;;;5094326;28;19956;-74
2022/10/15 13:20:35;;;;;;;;;;;19.90;99.90;;;;;;5094124;28;19998;-75
2022/10/15 13:23:29;;;;;;;;;;;19.90;99.90;;;;;;5094070;28;20316;-75
2022/10/15 13:26:14;;;;;;;;;;;19.80;99.90;;;;;;5076680;28;19908;-75
2022/10/15 13:28:41;;;;;;;;;;;19.70;99.90;;;;;;5075906;28;19990;-74
2022/10/15 13:31:24;;;;;;;;;;;19.70;99.90;;;;;;5093402;28;20000;-74
2022/10/15 13:33:51;;;;;;;;;;;19.90;99.90;;;;;;5093937;28;19919;-75
2022/10/15 13:36:24;;;;;;;;;;;20.00;99.90;;;;;;5094620;28;20458;-75
2022/10/15 13:38:52;;;;;;;;;;;20.00;99.90;;;;;;5094129;28;19904;-75
2022/10/15 13:41:22;;;;;;;;;;;20.10;99.90;;;;;;5094011;28;19904;-74
2022/10/15 13:43:53;;;;;;;;;;;20.00;99.90;;;;;;5075839;28;19904;-75
2022/10/15 13:46:22;;;;;;;;;;;20.10;99.90;;;;;;5094146;28;20244;-74
2022/10/15 13:48:47;;;;;;;;;;;20.10;99.90;;;;;;5094078;28;19910;-75
2022/10/15 13:51:13;;;;;;;;;;;19.90;99.90;;;;;;5097893;28;20279;-74
2022/10/15 13:53:39;;;;;;;;;;;19.70;99.90;;;;;;5098136;28;19908;-75
2022/10/15 13:56:19;;;;;;;;;;;19.50;99.90;;;;;;5097942;28;19999;-74
2022/10/15 13:58:45;;;;;;;;;;;19.70;99.90;;;;;;5098430;28;19950;-74
2022/10/15 14:01:20;;;;;;;;;;;19.80;99.90;;;;;;5097892;28;19904;-75
2022/10/15 14:03:48;;;;;;;;;;;19.70;99.90;;;;;;5098046;28;19915;-75
2022/10/15 14:06:14;;;;;;;;;;;19.80;99.90;;;;;;5097615;28;19904;-75
2022/10/15 14:08:39;;;;;;;;;;;20.00;99.90;;;;;;5097770;28;20386;-75
2022/10/15 14:11:05;;;;;;;;;;;20.20;99.90;;;;;;5079439;28;19908;-74
2022/10/15 14:13:30;;;;;;;;;;;20.30;99.90;;;;;;5097944;28;19908;-75
2022/10/15 14:15:59;;;;;;;;;;;20.20;99.90;;;;;;5097644;28;19904;-74
2022/10/15 14:18:36;;;;;;;;;;;19.90;99.90;;;;;;5079045;28;19904;-74
2022/10/15 14:21:02;;;;;;;;;;;19.70;99.90;;;;;;5097731;28;19958;-74
2022/10/15 14:23:28;;;;;;;;;;;19.60;99.90;;;;;;5097264;28;19904;-75
2022/10/15 14:25:57;;;;;;;;;;;19.50;99.90;;;;;;5097727;28;19904;-75